sensor_id;sensor_type;location;lat;lon;timestamp;temperature;humidity
68274;SHT30;55104;47.356;19.448;2023-03-14T00:01:45;6.66;61.28
68274;SHT30;55104;47.356;19.448;2023-03-14T00:04:47;6.63;61.36
68274;SHT30;55104;47.356;19.448;2023-03-14T00:07:50;6.61;61.17
68274;SHT30;55104;47.356;19.448;2023-03-14T00:10:52;6.61;61.06
68274;SHT30;55104;47.356;19.448;2023-03-14T00:13:54;6.60;61.23
68274;SHT30;55104;47.356;19.448;2023-03-14T00:16:56;6.53;61.57
68274;SHT30;55104;47.356;19.448;2023-03-14T00:19:58;6.53;61.50
68274;SHT30;55104;47.356;19.448;2023-03-14T00:23:08;6.60;61.38
68274;SHT30;55104;47.356;19.448;2023-03-14T00:26:13;6.61;61.03
68274;SHT30;55104;47.356;19.448;2023-03-14T00:29:16;6.61;61.36
68274;SHT30;55104;47.356;19.448;2023-03-14T00:32:19;6.61;61.51
68274;SHT30;55104;47.356;19.448;2023-03-14T00:35:22;6.66;61.15
68274;SHT30;55104;47.356;19.448;2023-03-14T00:38:24;6.57;61.56
68274;SHT30;55104;47.356;19.448;2023-03-14T00:41:26;6.56;61.67
68274;SHT30;55104;47.356;19.448;2023-03-14T00:44:28;6.57;61.70
68274;SHT30;55104;47.356;19.448;2023-03-14T00:47:31;6.61;61.52
68274;SHT30;55104;47.356;19.448;2023-03-14T00:50:34;6.69;61.35
68274;SHT30;55104;47.356;19.448;2023-03-14T00:53:38;6.70;61.40
68274;SHT30;55104;47.356;19.448;2023-03-14T00:56:40;6.81;61.01
68274;SHT30;55104;47.356;19.448;2023-03-14T00:59:42;6.87;61.07
68274;SHT30;55104;47.356;19.448;2023-03-14T01:02:44;6.80;61.19
68274;SHT30;55104;47.356;19.448;2023-03-14T01:05:47;6.81;61.21
68274;SHT30;55104;47.356;19.448;2023-03-14T01:08:50;6.84;61.23
68274;SHT30;55104;47.356;19.448;2023-03-14T01:11:52;6.76;61.54
68274;SHT30;55104;47.356;19.448;2023-03-14T01:14:54;6.69;61.91
68274;SHT30;55104;47.356;19.448;2023-03-14T01:17:56;6.69;61.91
68274;SHT30;55104;47.356;19.448;2023-03-14T01:20:59;6.73;61.71
68274;SHT30;55104;47.356;19.448;2023-03-14T01:24:03;6.69;62.23
68274;SHT30;55104;47.356;19.448;2023-03-14T01:27:06;6.70;62.34
68274;SHT30;55104;47.356;19.448;2023-03-14T01:30:09;6.87;61.75
68274;SHT30;55104;47.356;19.448;2023-03-14T01:33:17;6.80;61.95
68274;SHT30;55104;47.356;19.448;2023-03-14T01:36:19;6.74;62.19
68274;SHT30;55104;47.356;19.448;2023-03-14T01:39:22;6.63;62.54
68274;SHT30;55104;47.356;19.448;2023-03-14T01:42:24;6.53;62.86
68274;SHT30;55104;47.356;19.448;2023-03-14T01:52:58;6.52;63.48
68274;SHT30;55104;47.356;19.448;2023-03-14T01:55:44;6.50;63.37
68274;SHT30;55104;47.356;19.448;2023-03-14T01:58:48;6.52;63.43
68274;SHT30;55104;47.356;19.448;2023-03-14T02:01:51;6.54;63.18
68274;SHT30;55104;47.356;19.448;2023-03-14T02:04:55;6.52;63.42
68274;SHT30;55104;47.356;19.448;2023-03-14T02:08:07;6.40;63.71
68274;SHT30;55104;47.356;19.448;2023-03-14T02:11:17;6.36;63.99
68274;SHT30;55104;47.356;19.448;2023-03-14T02:14:32;6.30;64.00
68274;SHT30;55104;47.356;19.448;2023-03-14T02:17:53;6.16;64.45
68274;SHT30;55104;47.356;19.448;2023-03-14T02:24:31;6.08;64.73
68274;SHT30;55104;47.356;19.448;2023-03-14T02:27:41;6.05;64.97
68274;SHT30;55104;47.356;19.448;2023-03-14T02:30:43;6.04;64.99
68274;SHT30;55104;47.356;19.448;2023-03-14T02:33:46;6.08;64.85
68274;SHT30;55104;47.356;19.448;2023-03-14T02:36:48;6.19;64.62
68274;SHT30;55104;47.356;19.448;2023-03-14T02:39:51;6.21;64.45
68274;SHT30;55104;47.356;19.448;2023-03-14T02:42:53;6.14;64.50
68274;SHT30;55104;47.356;19.448;2023-03-14T02:45:56;6.06;64.62
68274;SHT30;55104;47.356;19.448;2023-03-14T02:49:04;6.05;64.71
68274;SHT30;55104;47.356;19.448;2023-03-14T02:52:06;6.06;64.70
68274;SHT30;55104;47.356;19.448;2023-03-14T02:55:09;6.05;64.94
68274;SHT30;55104;47.356;19.448;2023-03-14T02:58:14;6.09;64.69
68274;SHT30;55104;47.356;19.448;2023-03-14T03:01:18;6.08;65.00
68274;SHT30;55104;47.356;19.448;2023-03-14T03:04:20;6.05;64.87
68274;SHT30;55104;47.356;19.448;2023-03-14T03:07:22;6.05;64.91
68274;SHT30;55104;47.356;19.448;2023-03-14T03:10:26;5.99;65.14
68274;SHT30;55104;47.356;19.448;2023-03-14T03:13:28;5.98;65.04
68274;SHT30;55104;47.356;19.448;2023-03-14T03:16:34;5.99;65.02
68274;SHT30;55104;47.356;19.448;2023-03-14T03:19:36;6.02;65.08
68274;SHT30;55104;47.356;19.448;2023-03-14T03:22:39;6.06;64.77
68274;SHT30;55104;47.356;19.448;2023-03-14T03:25:41;6.08;64.78
68274;SHT30;55104;47.356;19.448;2023-03-14T03:28:43;6.06;64.59
68274;SHT30;55104;47.356;19.448;2023-03-14T03:31:48;6.06;64.78
68274;SHT30;55104;47.356;19.448;2023-03-14T03:34:57;6.08;64.68
68274;SHT30;55104;47.356;19.448;2023-03-14T03:37:59;6.12;64.68
68274;SHT30;55104;47.356;19.448;2023-03-14T03:41:05;6.18;64.20
68274;SHT30;55104;47.356;19.448;2023-03-14T03:44:07;6.26;64.36
68274;SHT30;55104;47.356;19.448;2023-03-14T03:47:09;6.32;63.87
68274;SHT30;55104;47.356;19.448;2023-03-14T03:50:13;6.32;63.88
68274;SHT30;55104;47.356;19.448;2023-03-14T03:53:17;6.29;63.98
68274;SHT30;55104;47.356;19.448;2023-03-14T03:56:34;6.30;63.89
68274;SHT30;55104;47.356;19.448;2023-03-14T03:59:36;6.30;64.01
68274;SHT30;55104;47.356;19.448;2023-03-14T04:02:40;6.33;63.87
68274;SHT30;55104;47.356;19.448;2023-03-14T04:05:45;6.32;63.76
68274;SHT30;55104;47.356;19.448;2023-03-14T04:08:48;6.32;63.90
68274;SHT30;55104;47.356;19.448;2023-03-14T04:12:25;6.29;63.82
68274;SHT30;55104;47.356;19.448;2023-03-14T04:15:35;6.29;63.57
68274;SHT30;55104;47.356;19.448;2023-03-14T04:18:44;6.37;63.65
68274;SHT30;55104;47.356;19.448;2023-03-14T04:21:46;6.43;63.70
68274;SHT30;55104;47.356;19.448;2023-03-14T04:24:48;6.40;63.58
68274;SHT30;55104;47.356;19.448;2023-03-14T04:27:52;6.35;63.69
68274;SHT30;55104;47.356;19.448;2023-03-14T04:31:10;6.47;63.25
68274;SHT30;55104;47.356;19.448;2023-03-14T04:34:13;6.50;63.00
68274;SHT30;55104;47.356;19.448;2023-03-14T04:37:22;6.44;63.25
68274;SHT30;55104;47.356;19.448;2023-03-14T04:40:25;6.43;63.07
68274;SHT30;55104;47.356;19.448;2023-03-14T04:43:32;6.42;63.05
68274;SHT30;55104;47.356;19.448;2023-03-14T04:46:41;6.47;63.01
68274;SHT30;55104;47.356;19.448;2023-03-14T04:49:45;6.46;63.00
68274;SHT30;55104;47.356;19.448;2023-03-14T04:52:49;6.46;62.82
68274;SHT30;55104;47.356;19.448;2023-03-14T04:55:54;6.40;62.94
68274;SHT30;55104;47.356;19.448;2023-03-14T04:58:59;6.35;63.25
68274;SHT30;55104;47.356;19.448;2023-03-14T05:02:02;6.22;63.26
68274;SHT30;55104;47.356;19.448;2023-03-14T05:05:22;6.15;63.52
68274;SHT30;55104;47.356;19.448;2023-03-14T05:08:45;6.16;63.30
68274;SHT30;55104;47.356;19.448;2023-03-14T05:11:58;6.16;63.37
68274;SHT30;55104;47.356;19.448;2023-03-14T05:15:20;6.19;63.38
68274;SHT30;55104;47.356;19.448;2023-03-14T05:18:51;6.19;63.60
68274;SHT30;55104;47.356;19.448;2023-03-14T05:22:19;6.21;63.42
68274;SHT30;55104;47.356;19.448;2023-03-14T05:25:42;6.28;62.91
68274;SHT30;55104;47.356;19.448;2023-03-14T05:28:53;6.44;62.52
68274;SHT30;55104;47.356;19.448;2023-03-14T05:32:10;6.54;62.19
68274;SHT30;55104;47.356;19.448;2023-03-14T05:35:30;6.52;62.13
68274;SHT30;55104;47.356;19.448;2023-03-14T05:39:02;6.47;62.16
68274;SHT30;55104;47.356;19.448;2023-03-14T05:42:13;6.40;62.44
68274;SHT30;55104;47.356;19.448;2023-03-14T05:45:31;6.35;62.82
68274;SHT30;55104;47.356;19.448;2023-03-14T05:48:39;6.35;62.90
68274;SHT30;55104;47.356;19.448;2023-03-14T05:52:13;6.29;62.84
68274;SHT30;55104;47.356;19.448;2023-03-14T05:55:41;6.26;63.23
68274;SHT30;55104;47.356;19.448;2023-03-14T05:58:59;6.33;63.45
68274;SHT30;55104;47.356;19.448;2023-03-14T06:02:11;6.36;63.48
68274;SHT30;55104;47.356;19.448;2023-03-14T06:05:27;6.44;63.49
68274;SHT30;55104;47.356;19.448;2023-03-14T06:08:34;6.60;62.56
68274;SHT30;55104;47.356;19.448;2023-03-14T06:11:37;6.74;63.04
68274;SHT30;55104;47.356;19.448;2023-03-14T06:14:41;6.87;62.59
68274;SHT30;55104;47.356;19.448;2023-03-14T06:17:43;7.11;62.22
68274;SHT30;55104;47.356;19.448;2023-03-14T06:20:53;7.33;61.48
68274;SHT30;55104;47.356;19.448;2023-03-14T06:23:59;7.63;60.61
68274;SHT30;55104;47.356;19.448;2023-03-14T06:27:04;7.88;59.78
68274;SHT30;55104;47.356;19.448;2023-03-14T06:30:07;8.16;59.23
68274;SHT30;55104;47.356;19.448;2023-03-14T06:33:10;8.43;58.27
68274;SHT30;55104;47.356;19.448;2023-03-14T06:36:15;8.71;57.79
68274;SHT30;55104;47.356;19.448;2023-03-14T06:39:20;8.97;56.89
68274;SHT30;55104;47.356;19.448;2023-03-14T06:42:28;9.16;56.39
68274;SHT30;55104;47.356;19.448;2023-03-14T06:45:30;9.30;56.65
68274;SHT30;55104;47.356;19.448;2023-03-14T06:48:34;9.53;55.91
68274;SHT30;55104;47.356;19.448;2023-03-14T06:51:36;9.78;55.46
68274;SHT30;55104;47.356;19.448;2023-03-14T06:54:40;10.06;54.50
68274;SHT30;55104;47.356;19.448;2023-03-14T06:57:43;10.31;54.49
68274;SHT30;55104;47.356;19.448;2023-03-14T07:00:47;10.64;54.27
68274;SHT30;55104;47.356;19.448;2023-03-14T07:03:55;10.94;53.84
68274;SHT30;55104;47.356;19.448;2023-03-14T07:06:57;11.15;52.89
68274;SHT30;55104;47.356;19.448;2023-03-14T07:10:00;11.40;52.89
68274;SHT30;55104;47.356;19.448;2023-03-14T07:13:03;11.70;50.92
68274;SHT30;55104;47.356;19.448;2023-03-14T07:16:09;11.99;50.51
68274;SHT30;55104;47.356;19.448;2023-03-14T07:19:12;12.24;49.17
68274;SHT30;55104;47.356;19.448;2023-03-14T07:22:14;12.39;49.40
68274;SHT30;55104;47.356;19.448;2023-03-14T07:25:17;12.63;48.73
68274;SHT30;55104;47.356;19.448;2023-03-14T07:28:19;12.69;48.25
68274;SHT30;55104;47.356;19.448;2023-03-14T07:31:24;12.61;47.90
68274;SHT30;55104;47.356;19.448;2023-03-14T07:34:27;12.76;48.19
68274;SHT30;55104;47.356;19.448;2023-03-14T07:37:30;12.84;47.42
68274;SHT30;55104;47.356;19.448;2023-03-14T07:40:35;12.90;48.16
68274;SHT30;55104;47.356;19.448;2023-03-14T07:43:39;13.07;47.92
68274;SHT30;55104;47.356;19.448;2023-03-14T07:46:41;13.16;47.15
68274;SHT30;55104;47.356;19.448;2023-03-14T07:49:43;13.28;47.24
68274;SHT30;55104;47.356;19.448;2023-03-14T07:52:45;13.41;47.22
68274;SHT30;55104;47.356;19.448;2023-03-14T07:55:48;13.58;47.32
68274;SHT30;55104;47.356;19.448;2023-03-14T07:58:50;13.77;46.76
68274;SHT30;55104;47.356;19.448;2023-03-14T08:01:52;14.00;45.61
68274;SHT30;55104;47.356;19.448;2023-03-14T08:04:54;14.22;44.76
68274;SHT30;55104;47.356;19.448;2023-03-14T08:07:56;14.38;45.22
68274;SHT30;55104;47.356;19.448;2023-03-14T08:11:05;14.51;45.75
68274;SHT30;55104;47.356;19.448;2023-03-14T08:14:10;14.72;44.76
68274;SHT30;55104;47.356;19.448;2023-03-14T08:17:13;14.94;43.96
68274;SHT30;55104;47.356;19.448;2023-03-14T08:20:18;15.04;44.11
68274;SHT30;55104;47.356;19.448;2023-03-14T08:23:20;15.10;43.60
68274;SHT30;55104;47.356;19.448;2023-03-14T08:26:22;15.11;44.27
68274;SHT30;55104;47.356;19.448;2023-03-14T08:29:24;15.32;44.28
68274;SHT30;55104;47.356;19.448;2023-03-14T08:32:26;15.49;43.40
68274;SHT30;55104;47.356;19.448;2023-03-14T08:35:29;15.44;43.10
68274;SHT30;55104;47.356;19.448;2023-03-14T08:38:31;15.58;42.93
68274;SHT30;55104;47.356;19.448;2023-03-14T08:41:34;15.58;43.16
68274;SHT30;55104;47.356;19.448;2023-03-14T08:44:41;15.67;42.74
68274;SHT30;55104;47.356;19.448;2023-03-14T08:47:44;15.87;43.12
68274;SHT30;55104;47.356;19.448;2023-03-14T08:50:47;16.21;43.28
68274;SHT30;55104;47.356;19.448;2023-03-14T08:53:50;16.47;42.24
68274;SHT30;55104;47.356;19.448;2023-03-14T08:56:52;16.59;41.58
68274;SHT30;55104;47.356;19.448;2023-03-14T08:59:55;16.52;41.69
68274;SHT30;55104;47.356;19.448;2023-03-14T09:02:57;16.54;41.18
68274;SHT30;55104;47.356;19.448;2023-03-14T09:06:04;16.66;42.45
68274;SHT30;55104;47.356;19.448;2023-03-14T09:09:06;16.82;42.00
68274;SHT30;55104;47.356;19.448;2023-03-14T09:12:08;16.80;41.36
68274;SHT30;55104;47.356;19.448;2023-03-14T09:15:10;16.82;41.38
68274;SHT30;55104;47.356;19.448;2023-03-14T09:18:13;16.97;41.33
68274;SHT30;55104;47.356;19.448;2023-03-14T09:21:15;16.97;40.53
68274;SHT30;55104;47.356;19.448;2023-03-14T09:24:17;17.18;41.10
68274;SHT30;55104;47.356;19.448;2023-03-14T09:27:19;17.16;41.16
68274;SHT30;55104;47.356;19.448;2023-03-14T09:30:22;17.44;41.93
68274;SHT30;55104;47.356;19.448;2023-03-14T09:33:24;17.47;41.27
68274;SHT30;55104;47.356;19.448;2023-03-14T09:36:26;17.69;41.10
68274;SHT30;55104;47.356;19.448;2023-03-14T09:39:28;17.82;41.16
68274;SHT30;55104;47.356;19.448;2023-03-14T09:42:30;18.06;40.30
68274;SHT30;55104;47.356;19.448;2023-03-14T09:45:37;18.33;40.23
68274;SHT30;55104;47.356;19.448;2023-03-14T09:48:43;18.56;39.01
68274;SHT30;55104;47.356;19.448;2023-03-14T09:51:47;18.76;38.74
68274;SHT30;55104;47.356;19.448;2023-03-14T09:55:03;18.75;37.77
68274;SHT30;55104;47.356;19.448;2023-03-14T09:58:12;18.71;38.31
68274;SHT30;55104;47.356;19.448;2023-03-14T10:01:16;18.92;38.49
68274;SHT30;55104;47.356;19.448;2023-03-14T10:04:21;18.98;37.78
68274;SHT30;55104;47.356;19.448;2023-03-14T10:07:31;18.96;37.40
68274;SHT30;55104;47.356;19.448;2023-03-14T10:10:35;19.09;37.51
68274;SHT30;55104;47.356;19.448;2023-03-14T10:13:47;19.07;37.56
68274;SHT30;55104;47.356;19.448;2023-03-14T10:16:50;19.20;38.43
68274;SHT30;55104;47.356;19.448;2023-03-14T10:19:57;19.48;37.76
68274;SHT30;55104;47.356;19.448;2023-03-14T10:26:17;19.66;37.25
68274;SHT30;55104;47.356;19.448;2023-03-14T10:29:20;19.81;37.20
68274;SHT30;55104;47.356;19.448;2023-03-14T10:32:35;19.64;37.19
68274;SHT30;55104;47.356;19.448;2023-03-14T10:35:37;19.75;37.68
68274;SHT30;55104;47.356;19.448;2023-03-14T10:38:39;19.79;37.12
68274;SHT30;55104;47.356;19.448;2023-03-14T10:41:47;19.50;38.10
68274;SHT30;55104;47.356;19.448;2023-03-14T10:44:54;19.61;38.08
68274;SHT30;55104;47.356;19.448;2023-03-14T10:48:05;19.37;38.38
68274;SHT30;55104;47.356;19.448;2023-03-14T10:54:23;19.78;38.02
68274;SHT30;55104;47.356;19.448;2023-03-14T10:57:27;19.79;37.76
68274;SHT30;55104;47.356;19.448;2023-03-14T11:00:30;19.81;38.03
68274;SHT30;55104;47.356;19.448;2023-03-14T11:03:36;20.20;37.95
68274;SHT30;55104;47.356;19.448;2023-03-14T11:13:31;20.68;36.97
68274;SHT30;55104;47.356;19.448;2023-03-14T11:16:51;20.59;36.70
68274;SHT30;55104;47.356;19.448;2023-03-14T11:20:23;20.79;36.17
68274;SHT30;55104;47.356;19.448;2023-03-14T11:26:55;20.67;36.63
68274;SHT30;55104;47.356;19.448;2023-03-14T11:33:38;20.67;37.10
68274;SHT30;55104;47.356;19.448;2023-03-14T11:43:45;20.98;37.32
68274;SHT30;55104;47.356;19.448;2023-03-14T11:50:17;21.41;37.80
68274;SHT30;55104;47.356;19.448;2023-03-14T11:53:42;21.73;36.68
68274;SHT30;55104;47.356;19.448;2023-03-14T11:56:47;21.78;36.00
68274;SHT30;55104;47.356;19.448;2023-03-14T12:00:19;21.54;36.12
68274;SHT30;55104;47.356;19.448;2023-03-14T12:03:44;21.27;36.77
68274;SHT30;55104;47.356;19.448;2023-03-14T12:06:50;21.26;37.00
68274;SHT30;55104;47.356;19.448;2023-03-14T12:09:53;21.24;37.20
68274;SHT30;55104;47.356;19.448;2023-03-14T12:12:57;21.43;36.52
68274;SHT30;55104;47.356;19.448;2023-03-14T12:19:42;21.33;35.97
68274;SHT30;55104;47.356;19.448;2023-03-14T12:22:52;20.96;37.72
68274;SHT30;55104;47.356;19.448;2023-03-14T12:26:13;21.05;36.90
68274;SHT30;55104;47.356;19.448;2023-03-14T12:29:16;20.98;37.00
68274;SHT30;55104;47.356;19.448;2023-03-14T12:32:24;20.99;37.07
68274;SHT30;55104;47.356;19.448;2023-03-14T12:35:38;20.64;37.45
68274;SHT30;55104;47.356;19.448;2023-03-14T12:49:19;21.34;36.88
68274;SHT30;55104;47.356;19.448;2023-03-14T12:55:45;21.58;36.14
68274;SHT30;55104;47.356;19.448;2023-03-14T12:59:16;21.19;36.58
68274;SHT30;55104;47.356;19.448;2023-03-14T13:02:38;20.89;37.07
68274;SHT30;55104;47.356;19.448;2023-03-14T13:05:55;20.48;38.22
68274;SHT30;55104;47.356;19.448;2023-03-14T13:10:04;20.37;37.49
68274;SHT30;55104;47.356;19.448;2023-03-14T13:15:49;20.16;37.94
68274;SHT30;55104;47.356;19.448;2023-03-14T13:19:06;19.97;38.43
68274;SHT30;55104;47.356;19.448;2023-03-14T13:22:21;19.97;38.76
68274;SHT30;55104;47.356;19.448;2023-03-14T13:25:24;19.87;38.71
68274;SHT30;55104;47.356;19.448;2023-03-14T13:28:31;19.85;38.35
68274;SHT30;55104;47.356;19.448;2023-03-14T13:31:36;19.90;38.85
68274;SHT30;55104;47.356;19.448;2023-03-14T13:34:38;19.72;38.61
68274;SHT30;55104;47.356;19.448;2023-03-14T13:37:42;19.62;38.87
68274;SHT30;55104;47.356;19.448;2023-03-14T13:40:46;19.51;38.20
68274;SHT30;55104;47.356;19.448;2023-03-14T13:43:48;19.47;38.62
68274;SHT30;55104;47.356;19.448;2023-03-14T13:46:50;19.53;38.23
68274;SHT30;55104;47.356;19.448;2023-03-14T13:49:53;19.58;38.44
68274;SHT30;55104;47.356;19.448;2023-03-14T13:52:56;19.57;38.45
68274;SHT30;55104;47.356;19.448;2023-03-14T13:56:02;19.58;38.32
68274;SHT30;55104;47.356;19.448;2023-03-14T13:59:23;19.54;38.00
68274;SHT30;55104;47.356;19.448;2023-03-14T14:02:26;19.51;38.44
68274;SHT30;55104;47.356;19.448;2023-03-14T14:05:29;19.51;38.16
68274;SHT30;55104;47.356;19.448;2023-03-14T14:08:33;19.51;38.98
68274;SHT30;55104;47.356;19.448;2023-03-14T14:11:48;19.31;39.31
68274;SHT30;55104;47.356;19.448;2023-03-14T14:15:16;19.09;39.54
68274;SHT30;55104;47.356;19.448;2023-03-14T14:18:24;18.91;39.75
68274;SHT30;55104;47.356;19.448;2023-03-14T14:21:28;18.72;40.87
68274;SHT30;55104;47.356;19.448;2023-03-14T14:24:31;18.62;40.73
68274;SHT30;55104;47.356;19.448;2023-03-14T14:27:37;18.56;40.10
68274;SHT30;55104;47.356;19.448;2023-03-14T14:30:41;18.54;40.33
68274;SHT30;55104;47.356;19.448;2023-03-14T14:33:57;18.51;40.45
68274;SHT30;55104;47.356;19.448;2023-03-14T14:37:00;18.45;40.40
68274;SHT30;55104;47.356;19.448;2023-03-14T14:40:08;18.31;41.09
68274;SHT30;55104;47.356;19.448;2023-03-14T14:43:17;18.18;41.53
68274;SHT30;55104;47.356;19.448;2023-03-14T14:46:20;18.14;40.92
68274;SHT30;55104;47.356;19.448;2023-03-14T14:49:31;18.04;40.67
68274;SHT30;55104;47.356;19.448;2023-03-14T14:52:41;17.93;41.09
68274;SHT30;55104;47.356;19.448;2023-03-14T14:55:43;17.75;41.60
68274;SHT30;55104;47.356;19.448;2023-03-14T14:58:46;17.66;41.97
68274;SHT30;55104;47.356;19.448;2023-03-14T15:01:49;17.52;42.12
68274;SHT30;55104;47.356;19.448;2023-03-14T15:04:53;17.51;41.41
68274;SHT30;55104;47.356;19.448;2023-03-14T15:07:54;17.52;41.84
68274;SHT30;55104;47.356;19.448;2023-03-14T15:10:57;17.48;42.14
68274;SHT30;55104;47.356;19.448;2023-03-14T15:13:59;17.45;41.89
68274;SHT30;55104;47.356;19.448;2023-03-14T15:17:03;17.45;41.77
68274;SHT30;55104;47.356;19.448;2023-03-14T15:20:09;17.44;41.94
68274;SHT30;55104;47.356;19.448;2023-03-14T15:23:20;17.32;42.72
68274;SHT30;55104;47.356;19.448;2023-03-14T15:26:24;17.20;42.59
68274;SHT30;55104;47.356;19.448;2023-03-14T15:29:27;17.14;42.72
68274;SHT30;55104;47.356;19.448;2023-03-14T15:32:31;17.16;42.26
68274;SHT30;55104;47.356;19.448;2023-03-14T15:35:33;17.11;42.87
68274;SHT30;55104;47.356;19.448;2023-03-14T15:38:35;17.06;42.98
68274;SHT30;55104;47.356;19.448;2023-03-14T15:41:37;17.03;43.18
68274;SHT30;55104;47.356;19.448;2023-03-14T15:44:39;16.89;43.33
68274;SHT30;55104;47.356;19.448;2023-03-14T15:47:41;16.79;43.88
68274;SHT30;55104;47.356;19.448;2023-03-14T15:50:44;16.73;43.66
68274;SHT30;55104;47.356;19.448;2023-03-14T15:53:47;16.69;44.13
68274;SHT30;55104;47.356;19.448;2023-03-14T15:56:49;16.68;44.07
68274;SHT30;55104;47.356;19.448;2023-03-14T15:59:52;16.54;44.12
68274;SHT30;55104;47.356;19.448;2023-03-14T16:02:54;16.45;44.53
68274;SHT30;55104;47.356;19.448;2023-03-14T16:05:56;16.47;44.68
68274;SHT30;55104;47.356;19.448;2023-03-14T16:08:58;16.42;45.00
68274;SHT30;55104;47.356;19.448;2023-03-14T16:12:01;16.44;44.70
68274;SHT30;55104;47.356;19.448;2023-03-14T16:15:07;16.34;45.64
68274;SHT30;55104;47.356;19.448;2023-03-14T16:18:09;16.28;45.10
68274;SHT30;55104;47.356;19.448;2023-03-14T16:21:22;16.20;45.06
68274;SHT30;55104;47.356;19.448;2023-03-14T16:24:24;16.07;45.51
68274;SHT30;55104;47.356;19.448;2023-03-14T16:27:26;16.16;45.19
68274;SHT30;55104;47.356;19.448;2023-03-14T16:30:29;16.08;45.56
68274;SHT30;55104;47.356;19.448;2023-03-14T16:33:32;15.99;45.71
68274;SHT30;55104;47.356;19.448;2023-03-14T16:36:34;15.86;46.21
68274;SHT30;55104;47.356;19.448;2023-03-14T16:39:36;15.70;46.31
68274;SHT30;55104;47.356;19.448;2023-03-14T16:42:58;15.56;46.63
68274;SHT30;55104;47.356;19.448;2023-03-14T16:46:17;15.76;46.15
68274;SHT30;55104;47.356;19.448;2023-03-14T16:49:25;15.99;47.42
68274;SHT30;55104;47.356;19.448;2023-03-14T16:52:28;15.93;48.90
68274;SHT30;55104;47.356;19.448;2023-03-14T16:55:30;15.87;50.13
68274;SHT30;55104;47.356;19.448;2023-03-14T16:58:33;15.73;51.70
68274;SHT30;55104;47.356;19.448;2023-03-14T17:01:35;15.69;53.91
68274;SHT30;55104;47.356;19.448;2023-03-14T17:04:39;15.51;57.05
68274;SHT30;55104;47.356;19.448;2023-03-14T17:07:43;15.36;60.91
68274;SHT30;55104;47.356;19.448;2023-03-14T17:10:50;15.20;62.25
68274;SHT30;55104;47.356;19.448;2023-03-14T17:13:52;15.01;63.67
68274;SHT30;55104;47.356;19.448;2023-03-14T17:16:54;14.89;64.51
68274;SHT30;55104;47.356;19.448;2023-03-14T17:19:57;14.75;65.43
68274;SHT30;55104;47.356;19.448;2023-03-14T17:22:59;14.58;66.38
68274;SHT30;55104;47.356;19.448;2023-03-14T17:26:01;14.55;66.92
68274;SHT30;55104;47.356;19.448;2023-03-14T17:29:03;14.46;67.59
68274;SHT30;55104;47.356;19.448;2023-03-14T17:32:05;14.32;68.16
68274;SHT30;55104;47.356;19.448;2023-03-14T17:35:08;14.28;68.46
68274;SHT30;55104;47.356;19.448;2023-03-14T17:38:10;14.21;69.46
68274;SHT30;55104;47.356;19.448;2023-03-14T17:41:14;14.15;70.02
68274;SHT30;55104;47.356;19.448;2023-03-14T17:44:16;14.07;70.71
68274;SHT30;55104;47.356;19.448;2023-03-14T17:47:19;13.94;71.51
68274;SHT30;55104;47.356;19.448;2023-03-14T17:50:21;13.90;71.76
68274;SHT30;55104;47.356;19.448;2023-03-14T17:53:24;13.79;72.58
68274;SHT30;55104;47.356;19.448;2023-03-14T17:56:26;13.74;73.02
68274;SHT30;55104;47.356;19.448;2023-03-14T17:59:28;13.65;73.56
68274;SHT30;55104;47.356;19.448;2023-03-14T18:02:30;13.52;74.27
68274;SHT30;55104;47.356;19.448;2023-03-14T18:05:32;13.55;74.16
68274;SHT30;55104;47.356;19.448;2023-03-14T18:08:36;13.46;74.17
68274;SHT30;55104;47.356;19.448;2023-03-14T18:11:39;13.45;74.31
68274;SHT30;55104;47.356;19.448;2023-03-14T18:14:41;13.38;74.66
68274;SHT30;55104;47.356;19.448;2023-03-14T18:17:45;13.36;74.59
68274;SHT30;55104;47.356;19.448;2023-03-14T18:20:49;13.26;75.48
68274;SHT30;55104;47.356;19.448;2023-03-14T18:23:51;13.24;76.38
68274;SHT30;55104;47.356;19.448;2023-03-14T18:26:54;13.04;77.59
68274;SHT30;55104;47.356;19.448;2023-03-14T18:29:56;13.01;78.29
68274;SHT30;55104;47.356;19.448;2023-03-14T18:32:59;12.94;79.17
68274;SHT30;55104;47.356;19.448;2023-03-14T18:36:01;12.80;79.73
68274;SHT30;55104;47.356;19.448;2023-03-14T18:39:04;12.77;79.74
68274;SHT30;55104;47.356;19.448;2023-03-14T18:42:08;12.67;80.19
68274;SHT30;55104;47.356;19.448;2023-03-14T18:45:10;12.56;80.63
68274;SHT30;55104;47.356;19.448;2023-03-14T18:48:13;12.50;80.92
68274;SHT30;55104;47.356;19.448;2023-03-14T18:51:16;12.42;81.04
68274;SHT30;55104;47.356;19.448;2023-03-14T18:54:19;12.32;81.21
68274;SHT30;55104;47.356;19.448;2023-03-14T18:57:21;12.31;80.94
68274;SHT30;55104;47.356;19.448;2023-03-14T19:00:24;12.28;81.22
68274;SHT30;55104;47.356;19.448;2023-03-14T19:03:30;12.20;81.73
68274;SHT30;55104;47.356;19.448;2023-03-14T19:06:32;12.08;81.66
68274;SHT30;55104;47.356;19.448;2023-03-14T19:09:34;12.01;82.31
68274;SHT30;55104;47.356;19.448;2023-03-14T19:12:37;11.98;82.33
68274;SHT30;55104;47.356;19.448;2023-03-14T19:15:39;12.02;82.21
68274;SHT30;55104;47.356;19.448;2023-03-14T19:18:42;12.02;82.08
68274;SHT30;55104;47.356;19.448;2023-03-14T19:21:44;11.87;82.02
68274;SHT30;55104;47.356;19.448;2023-03-14T19:24:46;11.80;81.55
68274;SHT30;55104;47.356;19.448;2023-03-14T19:27:48;11.74;82.30
68274;SHT30;55104;47.356;19.448;2023-03-14T19:30:51;11.73;83.31
68274;SHT30;55104;47.356;19.448;2023-03-14T19:33:54;11.70;83.39
68274;SHT30;55104;47.356;19.448;2023-03-14T19:36:56;11.66;83.49
68274;SHT30;55104;47.356;19.448;2023-03-14T19:39:58;11.63;83.61
68274;SHT30;55104;47.356;19.448;2023-03-14T19:43:00;11.56;83.40
68274;SHT30;55104;47.356;19.448;2023-03-14T19:46:02;11.59;83.82
68274;SHT30;55104;47.356;19.448;2023-03-14T19:49:06;11.55;83.78
68274;SHT30;55104;47.356;19.448;2023-03-14T19:52:08;11.55;83.55
68274;SHT30;55104;47.356;19.448;2023-03-14T19:55:10;11.58;83.35
68274;SHT30;55104;47.356;19.448;2023-03-14T19:58:13;11.63;83.23
68274;SHT30;55104;47.356;19.448;2023-03-14T20:01:15;11.55;83.02
68274;SHT30;55104;47.356;19.448;2023-03-14T20:04:17;11.53;83.08
68274;SHT30;55104;47.356;19.448;2023-03-14T20:07:19;11.52;83.00
68274;SHT30;55104;47.356;19.448;2023-03-14T20:10:23;11.53;82.74
68274;SHT30;55104;47.356;19.448;2023-03-14T20:13:25;11.50;82.58
68274;SHT30;55104;47.356;19.448;2023-03-14T20:16:27;11.44;82.52
68274;SHT30;55104;47.356;19.448;2023-03-14T20:19:29;11.46;82.55
68274;SHT30;55104;47.356;19.448;2023-03-14T20:22:33;11.43;82.24